Time;durP1;ratioP1;P1;durP2;ratioP2;P2;SDS_P1;SDS_P2;PMS_P1;PMS_P2;Temp;Humidity;BMP_temperature;BMP_pressure;BME280_temperature;BME280_humidity;BME280_pressure;Samples;Min_cycle;Max_cycle;Signal;HPM_P1;HPM_P2
2023/08/14 01:39:51;1411537.00;4.71;2477.74;116327.00;0.39;201.75;;;;;23.80;22.00;;;;;;2290667;60;973;-91
2023/08/14 01:42:25;186022.00;0.62;321.86;0.00;0.00;0.62;;;;;23.80;22.90;;;;;;2288657;60;984;-90
2023/08/14 01:45:07;401293.00;1.34;692.03;9714.00;0.03;17.45;;;;;23.60;24.40;;;;;;2288735;60;1518;-90
2023/08/14 01:50:07;1388673.00;4.63;2435.33;70703.00;0.24;122.98;;;;;23.70;23.70;;;;;;2282556;61;1946;-91
2023/08/14 01:57:54;1485032.00;4.95;2614.99;65400.00;0.22;113.81;;;;;24.30;20.70;;;;;;2290803;60;1194;-93
2023/08/14 04:10:48;1688793.00;5.63;3003.67;104342.00;0.35;181.07;;;;;23.30;18.10;;;;;;2287162;61;1934;-92
2023/08/14 04:16:01;1825419.00;6.08;3271.80;98127.00;0.33;170.34;;;;;23.10;17.40;;;;;;2287593;61;1394;-92
2023/08/14 04:23:37;1095442.00;3.65;1902.27;146526.00;0.49;253.82;;;;;23.40;17.00;;;;;;2281779;61;1407;-91
2023/08/14 05:38:47;1145729.00;3.82;1992.40;73323.00;0.24;127.50;;;;;24.40;17.00;;;;;;2290809;60;1009;-91
2023/08/14 06:46:26;922874.00;3.08;1596.33;0.00;0.00;0.62;;;;;34.40;1.00;;;;;;2282961;55;3688;-89
2023/08/14 06:48:53;279275.00;0.93;482.29;0.00;0.00;0.62;;;;;34.70;1.00;;;;;;2375142;40;3732;-89
2023/08/14 06:53:55;380539.00;1.27;656.35;0.00;0.00;0.62;;;;;35.70;1.00;;;;;;1575358;39;3117;-91
2023/08/14 07:11:43;276887.00;0.92;478.19;24823.00;0.08;43.62;;;;;36.50;1.00;;;;;;1442102;39;3081;-89
2023/08/14 07:19:23;1165388.00;3.88;2027.76;0.00;0.00;0.62;;;;;36.60;1.00;;;;;;2530861;40;3480;31
2023/08/14 07:49:52;1517156.00;5.06;2675.44;71870.00;0.24;124.99;;;;;38.20;1.00;;;;;;2286427;60;1972;-90
2023/08/14 07:52:19;669669.00;2.23;1154.68;60281.00;0.20;104.96;;;;;38.50;1.00;;;;;;2284568;60;1578;-89
2023/08/14 07:54:48;376372.00;1.25;649.19;56470.00;0.19;98.37;;;;;38.20;1.00;;;;;;2284905;60;1692;-88
2023/08/14 07:57:15;276281.00;0.92;477.14;59955.00;0.20;104.40;;;;;38.00;1.00;;;;;;2284920;60;1018;-89
2023/08/14 07:59:41;441537.00;1.47;761.23;0.00;0.00;0.62;;;;;38.60;1.00;;;;;;2295727;40;3547;-87
2023/08/14 08:02:08;136565.00;0.46;236.65;0.00;0.00;0.62;;;;;37.80;1.00;;;;;;2280909;61;1057;-88
2023/08/14 08:04:37;82590.00;0.28;143.51;0.00;0.00;0.62;;;;;37.90;1.00;;;;;;2280853;61;1386;-88
2023/08/14 08:07:06;0.00;0.00;0.62;0.00;0.00;0.62;;;;;38.00;1.00;;;;;;2280841;61;934;-88
2023/08/14 08:09:33;137488.00;0.46;238.24;0.00;0.00;0.62;;;;;37.70;1.00;;;;;;2284236;55;3765;-90
2023/08/14 08:12:00;120233.00;0.40;208.48;0.00;0.00;0.62;;;;;38.00;1.00;;;;;;2280889;60;1469;-88
2023/08/14 08:14:28;103504.00;0.35;179.62;0.00;0.00;0.62;;;;;38.70;1.00;;;;;;2280829;60;1418;-89
2023/08/14 08:16:55;109111.00;0.36;189.30;0.00;0.00;0.62;;;;;38.30;1.00;;;;;;2280708;60;1454;-88
2023/08/14 08:19:22;483613.00;1.61;833.62;30701.00;0.10;53.80;;;;;38.70;1.00;;;;;;2280762;60;1586;-89
2023/08/14 08:21:56;1860104.00;6.20;3340.92;77488.00;0.26;134.70;;;;;38.30;1.00;;;;;;2280754;60;1018;-89
2023/08/14 08:24:24;1110468.00;3.70;1929.15;82224.00;0.27;142.88;;;;;38.50;1.00;;;;;;2280794;60;1326;-89
2023/08/14 08:29:21;680733.00;2.27;1173.84;0.00;0.00;0.62;;;;;38.70;1.00;;;;;;2286680;55;3644;-89
2023/08/14 08:34:18;433581.00;1.45;747.54;0.00;0.00;0.62;;;;;38.20;1.00;;;;;;2286307;60;1391;-90
2023/08/14 08:39:13;1002393.00;3.34;1736.71;90929.00;0.30;157.91;;;;;38.00;1.00;;;;;;2287198;61;1315;-89
2023/08/14 08:41:47;830864.00;2.77;1435.00;75017.00;0.25;130.43;;;;;38.10;1.00;;;;;;2410764;39;3748;-89
2023/08/14 08:44:23;723299.00;2.41;1247.67;129738.00;0.43;224.88;;;;;37.90;1.00;;;;;;2301087;40;3580;-89
2023/08/14 08:46:53;117289.00;0.39;203.41;0.00;0.00;0.62;;;;;38.10;1.00;;;;;;2284817;60;1675;-89
2023/08/14 08:49:31;130160.00;0.43;225.61;0.00;0.00;0.62;;;;;38.30;1.00;;;;;;2291194;55;3726;-87
2023/08/14 08:54:30;1533291.00;5.11;2705.92;49186.00;0.16;85.78;;;;;37.50;1.00;;;;;;1897400;56;3637;-89
2023/08/14 09:01:57;559552.00;1.87;964.43;0.00;0.00;0.62;;;;;37.50;1.00;;;;;;2394402;40;3457;-87
2023/08/14 09:06:53;485359.00;1.62;836.62;0.00;0.00;0.62;;;;;37.00;1.00;;;;;;2286555;60;1418;-88
2023/08/14 09:09:21;136507.00;0.46;236.55;0.00;0.00;0.62;;;;;37.50;1.00;;;;;;2324885;39;3756;-90
2023/08/14 09:26:51;2356666.00;7.86;4384.25;154973.00;0.52;268.38;;;;;35.10;1.00;;;;;;1431362;55;3600;-89
2023/08/14 09:36:47;483435.00;1.61;833.31;0.00;0.00;0.62;;;;;35.00;1.00;;;;;;2286710;60;1420;-88
2023/08/14 09:39:13;155583.00;0.52;269.43;0.00;0.00;0.62;;;;;34.60;1.00;;;;;;2290625;39;3589;-90
2023/08/14 09:46:41;980127.00;3.27;1697.31;0.00;0.00;0.62;;;;;34.70;1.00;;;;;;2313738;56;3794;-90
2023/08/14 09:51:36;447467.00;1.49;771.43;0.00;0.00;0.62;;;;;34.90;1.00;;;;;;2282619;61;1893;-88
2023/08/14 09:54:08;10608.00;0.04;19.00;0.00;0.00;0.62;;;;;35.00;1.00;;;;;;2282846;55;3861;-89
2023/08/14 10:01:35;639408.00;2.13;1102.32;13789.00;0.05;24.51;;;;;34.80;1.00;;;;;;2289539;39;3505;-88
2023/08/14 10:04:05;1437528.00;4.79;2526.11;166083.00;0.55;287.52;;;;;34.40;1.00;;;;;;2290917;39;3593;-89
2023/08/14 10:06:33;1002417.00;3.34;1736.75;28117.00;0.09;49.32;;;;;34.30;1.00;;;;;;2285232;60;981;-88
2023/08/14 10:11:31;657948.00;2.19;1134.39;0.00;0.00;0.62;;;;;34.40;1.00;;;;;;2283061;60;1903;-88
2023/08/14 10:19:05;888309.00;2.96;1535.60;12500.00;0.04;22.28;;;;;34.80;1.00;;;;;;1589270;40;3445;-88
2023/08/14 10:21:35;122897528.00;409.66;75199080.00;0.00;0.00;0.62;;;;;34.90;1.00;;;;;;2281026;60;1092;-89
2023/08/14 10:24:03;586401.00;1.95;1010.74;58640.00;0.20;102.13;;;;;34.70;1.00;;;;;;2281004;60;2354;-90
2023/08/14 10:26:33;786224.00;2.62;1357.11;0.00;0.00;0.62;;;;;34.40;1.00;;;;;;2281043;60;1622;-88
2023/08/14 10:29:01;193755.00;0.65;335.17;65950.00;0.22;114.76;;;;;34.60;1.00;;;;;;2280704;60;1072;-89
2023/08/14 10:33:59;696464.00;2.32;1201.11;0.00;0.00;0.62;;;;;34.70;1.00;;;;;;2306088;56;3578;-89
2023/08/14 10:36:30;314800.00;1.05;543.36;11645.00;0.04;20.80;;;;;34.90;1.00;;;;;;2281086;60;1085;-89
2023/08/14 10:41:32;363281.00;1.21;626.69;0.00;0.00;0.62;;;;;34.80;1.00;;;;;;1610274;55;3603;-89
2023/08/14 10:44:05;115884.00;0.39;200.98;34704.00;0.12;60.72;;;;;35.30;1.00;;;;;;2285093;60;1597;-87
2023/08/14 10:49:05;576926.00;1.92;994.39;0.00;0.00;0.62;;;;;34.90;1.00;;;;;;2330891;55;3675;-87
2023/08/14 11:09:12;999768.00;3.33;1732.06;0.00;0.00;0.62;;;;;34.90;1.00;;;;;;2357527;39;3422;-87
2023/08/14 11:19:18;868874.00;2.90;1501.52;0.00;0.00;0.62;;;;;35.00;1.00;;;;;;2053629;55;3690;-88
2023/08/14 11:21:46;70507.00;0.24;122.64;0.00;0.00;0.62;;;;;34.80;1.00;;;;;;2284684;60;1588;-87
2023/08/14 11:24:15;133902.00;0.45;232.06;0.00;0.00;0.62;;;;;34.90;1.00;;;;;;2284231;60;1297;-89
2023/08/14 11:26:42;251982.00;0.84;435.36;0.00;0.00;0.62;;;;;35.20;1.00;;;;;;2294338;55;3774;-88
2023/08/14 11:29:09;118667.00;0.40;205.78;0.00;0.00;0.62;;;;;35.50;1.00;;;;;;2284277;60;1395;-88
2023/08/14 11:31:36;49515.00;0.17;86.35;0.00;0.00;0.62;;;;;35.20;1.00;;;;;;2284248;60;2001;-89
2023/08/14 11:36:41;680727.00;2.27;1173.83;116453.00;0.39;201.96;;;;;35.20;1.00;;;;;;2286060;60;1468;-87
2023/08/14 11:39:08;16048.00;0.05;28.43;0.00;0.00;0.62;;;;;35.50;1.00;;;;;;2284185;60;1023;-87
2023/08/14 11:41:37;0.00;0.00;0.62;0.00;0.00;0.62;;;;;35.60;1.00;;;;;;2284342;60;1066;-88
2023/08/14 11:44:04;8536.00;0.03;15.41;0.00;0.00;0.62;;;;;35.50;1.00;;;;;;2284313;60;1283;-88
2023/08/14 11:46:31;0.00;0.00;0.62;0.00;0.00;0.62;;;;;35.50;1.00;;;;;;2284323;60;1130;-88
2023/08/14 11:48:58;83626.00;0.28;145.30;19006.00;0.06;33.55;;;;;35.50;1.00;;;;;;2284319;60;1098;-88
2023/08/14 11:51:26;0.00;0.00;0.62;0.00;0.00;0.62;;;;;35.30;1.00;;;;;;2284231;60;1911;-88
2023/08/14 11:53:53;1175303.00;3.92;2045.63;55293.00;0.18;96.34;;;;;35.20;1.00;;;;;;2284727;60;1785;-89
2023/08/14 11:56:20;988588.00;3.30;1712.27;92782.00;0.31;161.11;;;;;35.00;1.00;;;;;;2281555;61;1134;-88
2023/08/14 12:01:18;458592.00;1.53;790.56;0.00;0.00;0.62;;;;;34.70;1.00;;;;;;2287135;60;1411;-88
2023/08/14 12:03:47;394513.00;1.32;680.37;0.00;0.00;0.62;;;;;34.80;1.00;;;;;;2285064;60;1312;-88
2023/08/14 12:06:14;272704.00;0.91;470.99;21407.00;0.07;37.71;;;;;34.50;1.00;;;;;;2284830;60;1618;-89
2023/08/14 12:08:40;807208.00;2.69;1393.70;67141.00;0.22;116.82;;;;;34.40;1.00;;;;;;2284886;60;2160;-88
2023/08/14 12:11:08;913157.00;3.04;1579.24;164083.00;0.55;284.07;;;;;34.30;1.00;;;;;;2284727;60;2008;-89
2023/08/14 12:13:35;117957504.00;393.19;66483028.00;0.00;0.00;0.62;;;;;34.30;1.00;;;;;;2284685;60;1807;-88
2023/08/14 12:16:09;227054.00;0.76;392.48;0.00;0.00;0.62;;;;;34.00;1.00;;;;;;2284870;60;1884;-89
2023/08/14 12:21:11;746648.00;2.49;1288.23;13245.00;0.04;23.57;;;;;33.60;1.00;;;;;;2286596;60;1335;-89
2023/08/14 12:26:08;704829.00;2.35;1215.61;18629.00;0.06;32.90;;;;;33.80;1.00;;;;;;2286739;60;1407;-87
2023/08/14 12:28:35;1129400.00;3.76;1963.08;142410.00;0.47;246.73;;;;;33.90;1.00;;;;;;2284822;60;1014;-89
2023/08/14 12:31:02;1171918.00;3.91;2039.53;94250.00;0.31;163.65;;;;;33.90;1.00;;;;;;2284754;60;1919;-88
2023/08/14 12:33:29;1130406.00;3.77;1964.89;246279.00;0.82;425.55;;;;;33.70;1.00;;;;;;2284642;60;1337;-89
2023/08/14 12:38:31;660982.00;2.20;1139.64;0.00;0.00;0.62;;;;;33.50;1.00;;;;;;2286604;60;1400;-88
2023/08/14 12:45:56;795100.00;2.65;1372.58;0.00;0.00;0.62;;;;;33.30;1.00;;;;;;1962475;40;3432;-87
2023/08/14 13:35:53;1081296.00;3.60;1877.01;0.00;0.00;0.62;;;;;31.80;1.00;;;;;;2084326;55;3634;-91
2023/08/14 16:09:16;1066273.00;3.55;1850.21;0.00;0.00;0.62;;;;;33.20;1.00;;;;;;2283233;61;979;-89
2023/08/14 17:17:04;1024565.00;3.42;1776.03;41079.00;0.14;71.76;;;;;32.90;1.00;;;;;;2334089;55;3544;-86
2023/08/14 17:19:30;200517.00;0.67;346.81;0.00;0.00;0.62;;;;;32.90;1.00;;;;;;2283505;60;1082;-85
2023/08/14 17:21:57;477573.00;1.59;823.22;0.00;0.00;0.62;;;;;32.70;1.00;;;;;;2283638;61;1733;-87
2023/08/14 17:24:24;65456.00;0.22;113.91;0.00;0.00;0.62;;;;;32.70;1.00;;;;;;2284079;60;1291;-86
2023/08/14 17:26:51;145985.00;0.49;252.89;0.00;0.00;0.62;;;;;32.60;1.00;;;;;;2283705;61;1133;-86
2023/08/14 17:29:18;174673.00;0.58;302.32;17784.00;0.06;31.43;;;;;32.40;1.00;;;;;;2283735;61;1183;-87
2023/08/14 17:31:44;245385.00;0.82;424.01;0.00;0.00;0.62;;;;;32.40;1.00;;;;;;2284220;60;2006;-86
2023/08/14 17:34:13;293392.00;0.98;506.56;0.00;0.00;0.62;;;;;32.20;1.00;;;;;;2284069;61;1521;-86
2023/08/14 17:36:40;237253.00;0.79;410.03;0.00;0.00;0.62;;;;;32.20;1.00;;;;;;2284248;60;1144;-86
2023/08/14 17:39:07;398322.00;1.33;686.92;0.00;0.00;0.62;;;;;32.10;1.00;;;;;;2283708;60;1223;-85
2023/08/14 17:41:35;109360.00;0.36;189.73;0.00;0.00;0.62;;;;;31.80;1.00;;;;;;2283771;61;1213;-86
2023/08/14 17:44:02;422702.00;1.41;728.84;40315.00;0.13;70.43;;;;;31.80;1.00;;;;;;2283496;61;2155;-86
2023/08/14 17:46:29;680259.00;2.27;1173.02;94558.00;0.32;164.18;;;;;31.80;1.00;;;;;;2284105;60;1034;-86
2023/08/14 17:48:55;584450.00;1.95;1007.38;32303.00;0.11;56.57;;;;;32.00;1.00;;;;;;2283904;61;1149;-86
2023/08/14 17:51:24;592122.00;1.97;1020.62;53577.00;0.18;93.37;;;;;32.10;1.00;;;;;;2283862;60;1930;-87
2023/08/14 17:53:52;849685.00;2.83;1467.92;66681.00;0.22;116.02;;;;;32.00;1.00;;;;;;2284040;60;1355;-86
2023/08/14 17:56:19;1210809.00;4.04;2109.78;210615.00;0.70;364.19;;;;;31.90;1.00;;;;;;2283768;61;1078;-87
2023/08/14 17:58:46;812180.00;2.71;1402.37;52672.00;0.18;91.81;;;;;31.80;1.00;;;;;;2283326;61;1145;-86
2023/08/14 18:01:13;801235.00;2.67;1383.28;93216.00;0.31;161.86;;;;;31.60;1.00;;;;;;2282828;61;1156;-85
2023/08/14 18:03:40;1058927.00;3.53;1837.12;173438.00;0.58;300.19;;;;;31.70;1.00;;;;;;2283316;61;1370;-85
2023/08/14 18:06:07;585878.00;1.95;1009.84;63029.00;0.21;109.71;;;;;31.80;1.00;;;;;;2282003;61;1471;-84
2023/08/14 18:08:35;861958.00;2.87;1489.40;153398.00;0.51;265.66;;;;;31.70;1.00;;;;;;2282075;61;1082;-84
2023/08/14 18:11:02;742312.00;2.47;1280.69;90217.00;0.30;156.68;;;;;31.70;1.00;;;;;;2282362;61;1527;-87
2023/08/14 18:13:29;411134.00;1.37;708.95;55264.00;0.18;96.29;;;;;31.60;1.00;;;;;;2282874;61;2025;-86
2023/08/14 18:15:59;950666.00;3.17;1645.29;170635.00;0.57;295.36;;;;;31.50;1.00;;;;;;2282812;61;1160;-85
2023/08/14 18:18:26;1520382.00;5.07;2681.53;207451.00;0.69;358.75;;;;;31.50;1.00;;;;;;2281668;61;1635;-85
2023/08/14 18:20:54;339188.00;1.13;585.28;102619.00;0.34;178.09;;;;;31.40;1.00;;;;;;2281492;61;1069;-86
2023/08/14 18:23:22;383568.00;1.28;661.56;69274.00;0.23;120.51;;;;;31.40;1.00;;;;;;2281287;61;1252;-86
2023/08/14 18:25:54;354742.00;1.18;612.01;83421.00;0.28;144.95;;;;;31.40;1.00;;;;;;2281614;61;1434;-86
2023/08/14 18:28:21;119145.00;0.40;206.61;0.00;0.00;0.62;;;;;31.30;1.00;;;;;;2281752;61;1144;-86
2023/08/14 18:30:48;118225.00;0.39;205.02;0.00;0.00;0.62;;;;;31.20;1.00;;;;;;2282120;60;1132;-86
2023/08/14 18:33:15;233451.00;0.78;403.49;16172.00;0.05;28.64;;;;;31.20;1.00;;;;;;2281037;61;1932;-86
2023/08/14 18:35:42;151760.00;0.51;262.84;0.00;0.00;0.62;;;;;31.10;1.00;;;;;;2279419;61;1124;-84
2023/08/14 18:38:09;0.00;0.00;0.62;0.00;0.00;0.62;;;;;31.00;1.00;;;;;;2276855;61;1170;-83
2023/08/14 18:40:37;0.00;0.00;0.62;0.00;0.00;0.62;;;;;30.90;1.00;;;;;;2277060;61;1180;-83
2023/08/14 18:43:05;291480.00;0.97;503.27;81984.00;0.27;142.46;;;;;30.90;1.00;;;;;;2276956;61;1374;-81
2023/08/14 18:45:32;0.00;0.00;0.62;0.00;0.00;0.62;;;;;30.70;1.00;;;;;;2276783;61;1134;-82
2023/08/14 18:47:58;100085.00;0.33;173.72;0.00;0.00;0.62;;;;;30.70;1.00;;;;;;2276851;61;2062;-82
2023/08/14 18:50:25;0.00;0.00;0.62;0.00;0.00;0.62;;;;;30.70;1.00;;;;;;2277211;61;1240;-81
2023/08/14 18:52:52;38266.00;0.13;66.89;0.00;0.00;0.62;;;;;30.60;1.00;;;;;;2277086;61;2013;-83
2023/08/14 18:55:19;22345.00;0.07;39.33;0.00;0.00;0.62;;;;;30.60;1.00;;;;;;2277400;61;1149;-83
2023/08/14 18:57:46;0.00;0.00;0.62;0.00;0.00;0.62;;;;;30.30;1.00;;;;;;2277384;61;1117;-82
2023/08/14 19:00:15;28474.00;0.09;49.94;0.00;0.00;0.62;;;;;30.20;1.00;;;;;;2277124;61;1187;-82
2023/08/14 19:02:41;135058.00;0.45;234.05;15454.00;0.05;27.40;;;;;30.30;1.00;;;;;;2278691;61;1126;-83
2023/08/14 19:05:09;14011.00;0.05;24.90;0.00;0.00;0.62;;;;;30.20;1.00;;;;;;2278478;61;1320;-81
2023/08/14 19:07:36;148783.00;0.50;257.71;0.00;0.00;0.62;;;;;30.00;1.00;;;;;;2278558;61;1133;-83
2023/08/14 19:10:03;0.00;0.00;0.62;0.00;0.00;0.62;;;;;29.80;1.00;;;;;;2280774;61;1176;-83
2023/08/14 19:12:30;342426.00;1.14;590.84;0.00;0.00;0.62;;;;;29.70;1.00;;;;;;2282147;61;2028;-84
2023/08/14 19:14:58;178381.00;0.59;308.70;30089.00;0.10;52.74;;;;;29.70;1.00;;;;;;2282128;61;1384;-84
2023/08/14 19:17:27;49770.00;0.17;86.79;0.00;0.00;0.62;;;;;29.70;1.00;;;;;;2283751;60;1198;-85
2023/08/14 19:19:54;0.00;0.00;0.62;0.00;0.00;0.62;;;;;29.70;1.60;;;;;;2283129;61;1082;-83
2023/08/14 19:22:22;46453.00;0.15;81.05;0.00;0.00;0.62;;;;;29.60;2.00;;;;;;2282988;61;1172;-83
2023/08/14 19:24:49;44982.00;0.15;78.51;0.00;0.00;0.62;;;;;29.60;1.40;;;;;;2282320;61;1460;-83
2023/08/14 19:27:16;319447.00;1.06;551.35;161812.00;0.54;280.16;;;;;29.60;1.00;;;;;;2280240;61;1220;-85
2023/08/14 19:29:42;0.00;0.00;0.62;0.00;0.00;0.62;;;;;29.40;1.20;;;;;;2282129;61;1115;-87
2023/08/14 19:32:09;417940.00;1.39;720.65;104811.00;0.35;181.88;;;;;29.40;1.00;;;;;;2282240;61;2009;-85
2023/08/14 19:34:37;49629.00;0.17;86.54;0.00;0.00;0.62;;;;;29.40;1.00;;;;;;2280354;61;1279;-84
2023/08/14 19:37:04;55490.00;0.18;96.68;0.00;0.00;0.62;;;;;29.40;1.00;;;;;;2281359;61;1160;-84
2023/08/14 19:39:31;4937.00;0.02;9.18;0.00;0.00;0.62;;;;;29.30;1.00;;;;;;2282093;61;1125;-82
2023/08/14 19:41:58;145337.00;0.48;251.77;0.00;0.00;0.62;;;;;29.20;1.00;;;;;;2279684;61;1086;-81
2023/08/14 19:44:25;127265.00;0.42;220.61;0.00;0.00;0.62;;;;;29.10;1.40;;;;;;2276430;61;1392;-82
2023/08/14 19:46:51;102877.00;0.34;178.54;0.00;0.00;0.62;;;;;29.10;1.40;;;;;;2276607;61;1275;-82
2023/08/14 19:49:20;0.00;0.00;0.62;0.00;0.00;0.62;;;;;28.90;2.60;;;;;;2276903;61;1171;-82
2023/08/14 19:51:48;23404.00;0.08;41.16;0.00;0.00;0.62;;;;;28.90;2.40;;;;;;2276826;61;1993;-83
2023/08/14 19:54:15;168895.00;0.56;292.36;0.00;0.00;0.62;;;;;29.00;2.50;;;;;;2276770;61;1359;-82
2023/08/14 19:56:42;277743.00;0.93;479.66;68259.00;0.23;118.75;;;;;28.90;2.30;;;;;;2276540;61;1114;-84
2023/08/14 19:59:09;8009.00;0.03;14.50;0.00;0.00;0.62;;;;;28.80;2.70;;;;;;2276203;61;1142;-84
2023/08/14 20:01:36;11341.00;0.04;20.27;0.00;0.00;0.62;;;;;28.60;3.20;;;;;;2277046;61;1409;-84
2023/08/14 20:04:03;14422.00;0.05;25.61;0.00;0.00;0.62;;;;;28.50;3.10;;;;;;2276951;61;1279;-83
2023/08/14 20:06:30;90656.00;0.30;157.44;0.00;0.00;0.62;;;;;28.50;3.40;;;;;;2276609;61;1244;-82
2023/08/14 20:08:58;133850.00;0.45;231.97;34429.00;0.11;60.25;;;;;28.50;3.50;;;;;;2276630;61;1097;-82
2023/08/14 20:11:25;0.00;0.00;0.62;0.00;0.00;0.62;;;;;28.40;3.70;;;;;;2277310;61;1113;-82
2023/08/14 20:13:51;71147.00;0.24;123.74;0.00;0.00;0.62;;;;;28.20;3.80;;;;;;2277161;61;2013;-83
2023/08/14 20:16:18;0.00;0.00;0.62;0.00;0.00;0.62;;;;;28.30;3.70;;;;;;2277246;61;1148;-83
2023/08/14 20:18:45;0.00;0.00;0.62;0.00;0.00;0.62;;;;;28.20;3.60;;;;;;2277511;61;1306;-82
2023/08/14 20:21:12;110014.00;0.37;190.85;0.00;0.00;0.62;;;;;28.10;4.00;;;;;;2277530;61;1157;-83
2023/08/14 20:23:39;0.00;0.00;0.62;0.00;0.00;0.62;;;;;27.90;4.40;;;;;;2277443;61;1359;-82
2023/08/14 20:26:07;0.00;0.00;0.62;0.00;0.00;0.62;;;;;28.00;4.30;;;;;;2278007;61;1126;-83
2023/08/14 20:28:36;133604.00;0.45;231.54;0.00;0.00;0.62;;;;;28.00;4.20;;;;;;2277728;61;1114;-81
2023/08/14 20:31:02;63543.00;0.21;110.60;0.00;0.00;0.62;;;;;28.00;4.60;;;;;;2277848;61;1229;-83
2023/08/14 20:33:29;0.00;0.00;0.62;0.00;0.00;0.62;;;;;27.90;5.60;;;;;;2277418;61;2015;-83
2023/08/14 20:35:56;0.00;0.00;0.62;0.00;0.00;0.62;;;;;27.80;5.50;;;;;;2277232;61;1149;-83
2023/08/14 20:38:23;0.00;0.00;0.62;0.00;0.00;0.62;;;;;27.90;5.50;;;;;;2277761;61;1124;-82
2023/08/14 20:40:54;13610.00;0.05;24.20;0.00;0.00;0.62;;;;;27.80;5.50;;;;;;2277745;61;1211;-83
2023/08/14 20:43:28;76825.00;0.26;133.55;0.00;0.00;0.62;;;;;27.70;5.50;;;;;;2277474;61;1459;-83
2023/08/14 20:45:55;0.00;0.00;0.62;0.00;0.00;0.62;;;;;27.60;6.20;;;;;;2277252;61;1120;-84
2023/08/14 20:48:22;194664.00;0.65;336.74;29055.00;0.10;50.95;;;;;27.70;5.50;;;;;;2277756;61;1113;-83
2023/08/14 20:50:49;207480.00;0.69;358.80;27073.00;0.09;47.52;;;;;27.60;5.50;;;;;;2277448;61;1100;-81
2023/08/14 20:53:16;33920.00;0.11;59.37;0.00;0.00;0.62;;;;;27.50;5.30;;;;;;2277213;61;1943;-81
2023/08/14 20:55:42;0.00;0.00;0.62;0.00;0.00;0.62;;;;;27.30;6.20;;;;;;2277637;61;1168;-82
2023/08/14 20:58:10;0.00;0.00;0.62;0.00;0.00;0.62;;;;;27.10;6.00;;;;;;2277430;61;1135;-82
2023/08/14 21:00:40;264496.00;0.88;456.88;0.00;0.00;0.62;;;;;27.10;5.80;;;;;;2277471;61;1078;-83
2023/08/14 21:03:14;14978.00;0.05;26.57;0.00;0.00;0.62;;;;;27.10;5.70;;;;;;2276901;61;1732;-82
2023/08/14 21:05:41;61332.00;0.20;106.78;0.00;0.00;0.62;;;;;27.20;5.90;;;;;;2277831;61;1139;-83
2023/08/14 21:08:08;259177.00;0.86;447.73;22063.00;0.07;38.84;;;;;27.20;5.40;;;;;;2277817;61;1042;-82
2023/08/14 21:10:37;525916.00;1.75;906.46;21173.00;0.07;37.30;;;;;27.20;5.30;;;;;;2276876;61;1536;-83
2023/08/14 21:13:04;37757.00;0.13;66.01;0.00;0.00;0.62;;;;;27.10;5.90;;;;;;2276969;61;2028;-83
2023/08/14 21:15:31;124589.00;0.42;216.00;0.00;0.00;0.62;;;;;27.00;6.00;;;;;;2276754;61;1725;-83
2023/08/14 21:17:59;394086.00;1.31;679.64;0.00;0.00;0.62;;;;;27.20;5.30;;;;;;2277140;61;1182;-83
2023/08/14 21:20:26;0.00;0.00;0.62;0.00;0.00;0.62;;;;;27.30;5.30;;;;;;2277824;61;1280;-83
2023/08/14 21:22:53;120596.00;0.40;209.11;0.00;0.00;0.62;;;;;26.90;6.60;;;;;;2277626;61;1285;-81
2023/08/14 21:25:20;41081.00;0.14;71.76;0.00;0.00;0.62;;;;;26.80;7.70;;;;;;2277574;61;1165;-81
2023/08/14 21:27:47;23625.00;0.08;41.55;0.00;0.00;0.62;;;;;26.60;8.00;;;;;;2277185;61;1243;-82
2023/08/14 21:30:14;34684.00;0.12;60.69;0.00;0.00;0.62;;;;;26.70;8.40;;;;;;2277000;61;993;-82
2023/08/14 21:32:41;0.00;0.00;0.62;0.00;0.00;0.62;;;;;26.70;8.50;;;;;;2277404;61;1942;-82
2023/08/14 21:35:10;152791.00;0.51;264.62;0.00;0.00;0.62;;;;;26.70;9.00;;;;;;2277472;61;1343;-82
2023/08/14 21:37:37;237607.00;0.79;410.63;65309.00;0.22;113.65;;;;;26.90;8.20;;;;;;2276869;61;1109;-83
2023/08/14 21:40:04;0.00;0.00;0.62;0.00;0.00;0.62;;;;;26.90;8.60;;;;;;2277381;61;1091;-82
2023/08/14 21:42:31;33185.00;0.11;58.10;0.00;0.00;0.62;;;;;26.70;9.60;;;;;;2277206;61;1170;-82
2023/08/14 21:44:58;134567.00;0.45;233.20;28144.00;0.09;49.37;;;;;26.80;9.10;;;;;;2277386;61;1359;-82
2023/08/14 21:47:25;100636.00;0.34;174.67;0.00;0.00;0.62;;;;;26.60;9.70;;;;;;2277376;61;1178;-81
2023/08/14 21:49:52;560628.00;1.87;966.28;212545.00;0.71;367.52;;;;;26.50;10.20;;;;;;2277803;61;1139;-82
2023/08/14 21:52:20;264161.00;0.88;456.30;20865.00;0.07;36.77;;;;;26.10;11.00;;;;;;2277989;61;1129;-82
2023/08/14 21:54:47;76691.00;0.26;133.32;0.00;0.00;0.62;;;;;25.80;13.10;;;;;;2277573;61;1967;-82
2023/08/14 21:57:13;502807.00;1.68;866.66;147555.00;0.49;255.59;;;;;25.60;14.00;;;;;;2277650;61;1217;-82
2023/08/14 21:59:40;117046.00;0.39;202.99;0.00;0.00;0.62;;;;;25.50;14.80;;;;;;2277747;61;1131;-81
2023/08/14 22:02:07;60374.00;0.20;105.12;0.00;0.00;0.62;;;;;25.90;13.30;;;;;;2277822;61;1146;-81
2023/08/14 22:04:34;78436.00;0.26;136.34;0.00;0.00;0.62;;;;;26.20;12.30;;;;;;2277655;61;1370;-82
2023/08/14 22:07:00;45289.00;0.15;79.04;0.00;0.00;0.62;;;;;26.30;11.30;;;;;;2277549;61;1112;-81
2023/08/14 22:09:29;247835.00;0.83;428.23;0.00;0.00;0.62;;;;;26.40;11.00;;;;;;2277301;61;1572;-81
2023/08/14 22:11:56;300980.00;1.00;519.60;17713.00;0.06;31.31;;;;;26.40;10.90;;;;;;2277667;61;1129;-81
2023/08/14 22:14:22;354128.00;1.18;610.96;5079.00;0.02;9.42;;;;;26.50;10.70;;;;;;2277208;61;2029;-81
2023/08/14 22:16:50;291065.00;0.97;502.56;15527.00;0.05;27.52;;;;;26.60;10.70;;;;;;2277359;61;1121;-81
2023/08/14 22:19:17;264507.00;0.88;456.90;0.00;0.00;0.62;;;;;26.50;10.70;;;;;;2277450;61;1124;-81
2023/08/14 22:21:43;404451.00;1.35;697.46;33723.00;0.11;59.03;;;;;26.60;10.10;;;;;;2277495;61;1196;-81
2023/08/14 22:24:10;279972.00;0.93;483.49;0.00;0.00;0.62;;;;;26.60;10.00;;;;;;2276841;61;1376;-81
2023/08/14 22:26:39;504910.00;1.68;870.28;39880.00;0.13;69.68;;;;;26.50;10.60;;;;;;2276170;61;1315;-81
2023/08/14 22:29:05;252207.00;0.84;435.75;9417.00;0.03;16.94;;;;;26.60;9.90;;;;;;2277132;61;1122;-81
2023/08/14 22:31:32;313333.00;1.04;540.84;0.00;0.00;0.62;;;;;26.60;10.10;;;;;;2277089;61;1090;-81
2023/08/14 22:33:59;228562.00;0.76;395.07;0.00;0.00;0.62;;;;;26.60;10.40;;;;;;2277374;61;2004;-81
2023/08/14 22:36:26;538480.00;1.79;928.10;18686.00;0.06;32.99;;;;;26.60;9.40;;;;;;2277211;61;1131;-81
2023/08/14 22:38:53;381864.00;1.27;658.63;0.00;0.00;0.62;;;;;26.60;10.30;;;;;;2277281;61;1163;-82
2023/08/14 22:41:19;572353.00;1.91;986.51;74651.00;0.25;129.80;;;;;26.50;10.60;;;;;;2277270;61;1181;-82
2023/08/14 22:43:48;332268.00;1.11;573.38;43108.00;0.14;75.27;;;;;26.40;10.40;;;;;;2276700;61;1348;-81
2023/08/14 22:46:15;361102.00;1.20;622.94;0.00;0.00;0.62;;;;;26.50;9.70;;;;;;2277108;61;1282;-81
2023/08/14 22:48:41;698141.00;2.33;1204.02;2721.00;0.01;5.34;;;;;26.50;10.10;;;;;;2277405;61;1337;-81
2023/08/14 22:51:08;360484.00;1.20;621.88;0.00;0.00;0.62;;;;;26.40;10.10;;;;;;2277645;61;1571;-83
2023/08/14 22:53:35;281867.00;0.94;486.75;24648.00;0.08;43.32;;;;;26.00;10.60;;;;;;2277208;61;2023;-82
2023/08/14 22:56:02;342270.00;1.14;590.58;13606.00;0.05;24.20;;;;;25.30;13.10;;;;;;2277461;61;1145;-82
2023/08/14 22:58:29;169471.00;0.56;293.36;0.00;0.00;0.62;;;;;25.20;14.50;;;;;;2277244;61;1160;-81
2023/08/14 23:00:57;310152.00;1.03;535.37;4634.00;0.02;8.65;;;;;25.50;13.00;;;;;;2276798;61;1105;-81
2023/08/14 23:03:24;424310.00;1.41;731.60;44200.00;0.15;77.15;;;;;25.80;12.00;;;;;;2276646;61;1257;-81
2023/08/14 23:05:50;336259.00;1.12;580.24;0.00;0.00;0.62;;;;;25.70;11.70;;;;;;2276799;61;1122;-80
2023/08/14 23:08:17;362997.00;1.21;626.20;24428.00;0.08;42.94;;;;;25.90;11.50;;;;;;2275800;61;1132;-81
2023/08/14 23:10:46;549923.00;1.83;947.83;34144.00;0.11;59.76;;;;;25.60;12.60;;;;;;2276098;61;1105;-80
2023/08/14 23:13:13;367885.00;1.23;634.60;0.00;0.00;0.62;;;;;25.60;13.10;;;;;;2275938;61;2032;-80
2023/08/14 23:15:39;408060.00;1.36;703.66;0.00;0.00;0.62;;;;;25.60;12.20;;;;;;2275895;61;1133;-80
2023/08/14 23:18:07;288362.00;0.96;497.91;0.00;0.00;0.62;;;;;25.80;12.00;;;;;;2275232;61;1195;-80